Weather reports worldwide

Advertisment
Dalwhinnie, United Kingdom (99005): temperature & dewpoint: 19.05.2018 04:00:00 - 25.05.2018 04:00:00 (BST)Dalwhinnie, United Kingdom (99005): precipitation: 19.05.2018 04:00:00 - 25.05.2018 04:00:00 (BST)
Date & Time tt [°C] td [°C] rr [mm]
25.05.2018 04:00:00 - - -
25.05.2018 03:00:00 - - 0,0
25.05.2018 02:00:00 10,1 5,1 0,0
25.05.2018 01:00:00 11,1 5,8 0,0
25.05.2018 00:00:00 12,8 5,8 0,0
24.05.2018 23:00:00 13,2 6,5 0,0
24.05.2018 22:00:00 14,5 6,7 0,0
24.05.2018 21:00:00 15,8 7,0 0,0
24.05.2018 20:00:00 17,7 7,3 0,0
24.05.2018 19:00:00 19,0 4,4 0,0
24.05.2018 18:00:00 19,2 5,0 0,0
24.05.2018 17:00:00 19,7 5,6 0,0
24.05.2018 16:00:00 19,7 5,9 0,0
24.05.2018 15:00:00 19,5 7,3 0,0
24.05.2018 14:00:00 18,8 8,4 0,0
24.05.2018 13:00:00 17,6 7,2 0,0
24.05.2018 12:00:00 16,8 7,6 0,0
24.05.2018 11:00:00 15,3 6,0 0,0
24.05.2018 10:00:00 12,7 7,2 0,0
24.05.2018 09:00:00 9,8 5,9 0,0
24.05.2018 08:00:00 8,4 5,7 0,0
24.05.2018 07:00:00 5,7 5,1 0,0
24.05.2018 06:00:00 5,1 4,5 0,0
24.05.2018 05:00:00 4,5 3,7 0,0
24.05.2018 04:00:00 6,1 5,2 0,0
24.05.2018 03:00:00 6,3 5,8 0,0
24.05.2018 02:00:00 6,8 5,7 0,0
24.05.2018 01:00:00 7,9 6,0 0,0
24.05.2018 00:00:00 9,4 5,9 0,0
23.05.2018 23:00:00 10,7 6,6 0,0
23.05.2018 22:00:00 11,5 7,1 0,0
23.05.2018 21:00:00 13,8 7,4 0,0
23.05.2018 20:00:00 15,8 8,6 0,0
23.05.2018 19:00:00 17,6 9,3 0,0
23.05.2018 18:00:00 18,5 8,9 0,0
23.05.2018 17:00:00 18,4 8,6 0,0
23.05.2018 16:00:00 18,0 8,5 0,0
23.05.2018 15:00:00 17,4 9,2 0,0
23.05.2018 14:00:00 16,1 8,1 0,0
23.05.2018 13:00:00 15,1 7,4 0,0
23.05.2018 12:00:00 13,2 6,2 0,0
23.05.2018 11:00:00 12,3 6,7 0,0
23.05.2018 10:00:00 11,3 6,2 0,0
23.05.2018 09:00:00 10,1 6,4 0,0
23.05.2018 08:00:00 9,5 6,7 0,0
23.05.2018 07:00:00 8,3 6,5 0,0
23.05.2018 06:00:00 7,5 6,2 0,0
23.05.2018 05:00:00 6,8 5,9 0,0
23.05.2018 04:00:00 6,6 5,6 0,0
23.05.2018 03:00:00 6,7 5,6 0,0
23.05.2018 02:00:00 6,9 5,7 0,0
23.05.2018 01:00:00 6,8 5,4 0,0
23.05.2018 00:00:00 7,0 5,4 0,0
22.05.2018 23:00:00 7,1 5,5 0,0
22.05.2018 22:00:00 7,4 5,7 0,0
22.05.2018 21:00:00 7,7 5,8 0,0
22.05.2018 20:00:00 8,4 6,1 0,0
22.05.2018 19:00:00 9,1 6,4 0,0
22.05.2018 18:00:00 9,4 6,5 0,0
22.05.2018 17:00:00 9,6 6,7 0,0
22.05.2018 16:00:00 9,4 6,4 0,0
22.05.2018 15:00:00 9,6 6,3 0,0
22.05.2018 14:00:00 9,1 5,6 0,0
22.05.2018 13:00:00 9,1 6,2 0,0
22.05.2018 12:00:00 8,5 5,9 0,0
22.05.2018 11:00:00 7,5 5,7 0,0
22.05.2018 10:00:00 6,5 5,5 0,0
22.05.2018 09:00:00 5,8 5,1 0,0
22.05.2018 08:00:00 5,1 4,8 0,0
22.05.2018 07:00:00 4,9 4,2 0,0
22.05.2018 06:00:00 4,6 3,9 0,0
22.05.2018 05:00:00 4,6 4,0 0,2
22.05.2018 04:00:00 4,6 3,9 0,2
22.05.2018 03:00:00 4,7 4,1 0,6
22.05.2018 02:00:00 4,5 3,8 0,2
22.05.2018 01:00:00 4,6 3,3 0,4
22.05.2018 00:00:00 4,9 3,8 0,4
21.05.2018 23:00:00 5,4 4,1 0,0
21.05.2018 22:00:00 5,9 4,5 0,0
21.05.2018 21:00:00 6,4 5,1 0,0
21.05.2018 20:00:00 6,9 5,5 0,2
21.05.2018 19:00:00 8,5 6,0 0,0
21.05.2018 18:00:00 9,6 7,1 0,0
21.05.2018 17:00:00 11,3 8,6 0,0
21.05.2018 16:00:00 12,6 8,6 0,0
21.05.2018 15:00:00 13,2 9,2 0,0
21.05.2018 14:00:00 12,4 8,9 0,0
21.05.2018 13:00:00 11,8 8,8 0,0
21.05.2018 12:00:00 12,8 8,9 0,0
21.05.2018 11:00:00 12,2 8,4 0,0
21.05.2018 10:00:00 11,6 7,5 0,0
21.05.2018 09:00:00 12,7 8,1 0,0
21.05.2018 08:00:00 11,5 8,6 0,0
21.05.2018 07:00:00 10,3 7,3 0,0
21.05.2018 06:00:00 10,3 8,4 0,0
21.05.2018 05:00:00 10,4 8,8 0,0
21.05.2018 04:00:00 10,6 9,0 0,4
21.05.2018 03:00:00 10,5 9,1 0,6
21.05.2018 02:00:00 10,5 8,9 0,4
21.05.2018 01:00:00 11,3 8,1 0,0
21.05.2018 00:00:00 12,1 7,7 0,0
20.05.2018 23:00:00 12,1 7,7 0,0
20.05.2018 22:00:00 12,3 7,8 0,0
20.05.2018 21:00:00 12,3 7,9 0,0
20.05.2018 20:00:00 12,2 8,5 0,0
20.05.2018 19:00:00 13,0 9,3 0,0
20.05.2018 18:00:00 13,5 9,7 0,0
20.05.2018 17:00:00 13,4 9,7 0,0
20.05.2018 16:00:00 13,8 9,3 0,0
20.05.2018 15:00:00 13,4 9,1 0,0
20.05.2018 14:00:00 13,5 8,8 0,0
20.05.2018 13:00:00 13,7 8,9 0,0
20.05.2018 12:00:00 14,0 8,6 0,0
20.05.2018 11:00:00 12,9 7,8 0,0
20.05.2018 10:00:00 12,5 7,3 0,0
20.05.2018 09:00:00 12,7 6,7 0,0
20.05.2018 08:00:00 11,6 6,4 0,0
20.05.2018 07:00:00 11,0 6,0 0,0
20.05.2018 06:00:00 10,7 6,0 0,0
20.05.2018 05:00:00 10,9 6,0 0,0
20.05.2018 04:00:00 11,2 6,1 0,0
20.05.2018 03:00:00 11,3 6,2 0,0
20.05.2018 02:00:00 11,6 6,2 0,0
20.05.2018 01:00:00 11,6 5,9 0,0
20.05.2018 00:00:00 11,7 5,4 0,0
19.05.2018 23:00:00 12,1 4,3 0,0
19.05.2018 22:00:00 12,6 4,3 0,0
19.05.2018 21:00:00 13,3 4,2 0,0
19.05.2018 20:00:00 14,3 5,4 0,0
19.05.2018 19:00:00 15,2 4,8 0,0
19.05.2018 18:00:00 16,3 5,9 0,0
19.05.2018 17:00:00 16,8 6,2 0,0
19.05.2018 16:00:00 17,2 5,9 0,0
19.05.2018 15:00:00 17,0 6,2 0,0
19.05.2018 14:00:00 16,6 5,3 0,0
19.05.2018 13:00:00 16,7 6,6 0,0
19.05.2018 12:00:00 15,0 7,1 0,0
19.05.2018 11:00:00 14,9 7,6 0,0
19.05.2018 10:00:00 13,9 7,3 0,0
19.05.2018 09:00:00 11,9 6,8 0,0
19.05.2018 08:00:00 11,9 7,2 0,0
19.05.2018 07:00:00 8,6 7,9 0,0
19.05.2018 06:00:00 5,3 4,4 0,0
19.05.2018 05:00:00 5,5 3,9 0,0
19.05.2018 04:00:00 9,2 6,1 0,0

tt = temperature
td = dewpoint
rr = precipitation

Next stations